This is the latest recevied weather packets stored in our database for station/object EA1GGY-1. If no packets are shown the sender has not sent any weather packets the latest 10 day(s).
| Time | Temp. | Humidity | Pressure | Rain* | Wind** | Luminosity | Snow |
|---|---|---|---|---|---|---|---|
| 1778240341 | 8.89° C | 75% | 1005.5 hPa | - | - | - | - |
| 1778239739 | 8.89° C | 77% | 1005.7 hPa | - | - | - | - |
| 1778239140 | 8.33° C | 79% | 1005.8 hPa | - | - | - | - |
| 1778238537 | 8.33° C | 81% | 1005.9 hPa | - | - | - | - |
| 1778237937 | 9.44° C | 77% | 1005.5 hPa | - | - | - | - |
| 1778237336 | 10° C | 76% | 1005.6 hPa | - | - | - | - |
| 1778236735 | 9.44° C | 77% | 1005.5 hPa | - | - | - | - |
| 1778236135 | 9.44° C | 79% | 1005.5 hPa | - | - | - | - |
| 1778235533 | 9.44° C | 79% | 1005.5 hPa | - | - | - | - |
| 1778234933 | 9.44° C | 76% | 1005.4 hPa | - | - | - | - |
| 1778234333 | 9.44° C | 76% | 1005.3 hPa | - | - | - | - |
| 1778233732 | 9.44° C | 76% | 1005.2 hPa | - | - | - | - |
| 1778233130 | 9.44° C | 74% | 1005 hPa | - | - | - | - |
| 1778232530 | 8.89° C | 73% | 1005.1 hPa | - | - | - | - |
| 1778231929 | 9.44° C | 74% | 1005.2 hPa | - | - | - | - |
| 1778231328 | 8.89° C | 76% | 1005.3 hPa | - | - | - | - |
| 1778230727 | 8.89° C | 77% | 1005.3 hPa | - | - | - | - |
| 1778230128 | 8.89° C | 75% | 1005.3 hPa | - | - | - | - |
| 1778229525 | 8.33° C | 77% | 1005.5 hPa | - | - | - | - |
| 1778228924 | 8.89° C | 77% | 1005.8 hPa | - | - | - | - |
| 1778228326 | 9.44° C | 75% | 1005.7 hPa | - | - | - | - |
| 1778227722 | 9.44° C | 78% | 1005.7 hPa | - | - | - | - |
| 1778227121 | 9.44° C | 77% | 1005.6 hPa | - | - | - | - |
| 1778226520 | 9.44° C | 76% | 1005.4 hPa | - | - | - | - |
| 1778225920 | 9.44° C | 77% | 1005.2 hPa | - | - | - | - |
* Rain since midnight (hover to see other rain measurements)
** Current wind speed in m/s (hover to see current wind gust speed)